Hlavní strana
METAR-TAF:

METAR-TAF

Letiště :

Letiště Ankara-Esenboğa

Ankara Esenboğa, Turecko

zeměpisná šířka: 40-07N, zeměpisná délka: 032-59E, výška: 953 m

Aktuální stav počasí

Zpráva byla vytvořena před 21 minutami, v 15:20 UTC
Východní vítr 8 kt
Teplota 20°C
Vlhkost vzduchu 40%
Tlak 1020 hPa
Viditelnost 10 km a více
Skoro jasno ve výšce 4000 ft

METAR: LTAC 151520Z 09008KT 9999 FEW040 20/06 Q1020 NOSIG RMK RWY21L 06006KT 020V100 RWY03L 09008KT RWY21R 05007KT

Čas: 18:41 (15:41 UTC)

Předpověď počasí

Zpráva byla vytvořena před 5 hodinami a 1 minutami, v 10:40 UTC
Předpověď platná od 15 v 12 UTC do 16 v 12 UTC
Severovýchodní vítr 8 kt
Viditelnost 10 km a více
Polojasno ve výšce 4000 ft

TAF: LTAC 151040Z 1512/1612 04008KT 9999 SCT040

Stav a předpovědi počasí z více než 4 000 letišť (zprávy METAR a TAF).

Červené a žluté tečky na mapě představují dostupné meteorologické stanice.

Když kurzor umístíte na tečku, zobrazí se název stanice.

Pak kliknutím zobrazíte stav a předpověď počasí.

Chcete-li změnit mapu, kliknutím na zelené tlačítko se znaménkem +mapu přiblížíte, kliknutím na zelené tlačítko se znaménkem – mapu oddálíte a kliknutím na zelené šipky přejdete na sousední mapy.


METAR-TAF: